Time;durP1;ratioP1;P1;durP2;ratioP2;P2;SDS_P1;SDS_P2;PMS_P1;PMS_P2;Temp;Humidity;BMP_temperature;BMP_pressure;BME280_temperature;BME280_humidity;BME280_pressure;Samples;Min_cycle;Max_cycle;Signal;HPM_P1;HPM_P2
2023/04/14 00:00:08;;;;;;;3.83;2.53;;;18.00;59.40;;;;;;5072015;28;20248;-47
2023/04/14 00:02:40;;;;;;;4.17;2.07;;;18.00;59.40;;;;;;5063933;28;20252;-47
2023/04/14 00:05:14;;;;;;;5.03;2.10;;;18.00;59.40;;;;;;5059508;28;20199;-47
2023/04/14 00:07:44;;;;;;;3.43;2.03;;;18.00;59.50;;;;;;5072648;28;20189;-47
2023/04/14 00:10:15;;;;;;;4.33;2.00;;;18.00;59.50;;;;;;5070002;28;20225;-47
2023/04/14 00:12:44;;;;;;;3.20;1.90;;;18.00;59.50;;;;;;5058008;28;20544;-47
2023/04/14 00:15:14;;;;;;;5.70;2.27;;;17.90;59.50;;;;;;5064647;28;20201;-47
2023/04/14 00:17:46;;;;;;;3.20;1.90;;;17.90;59.50;;;;;;5065631;28;20279;-47
2023/04/14 00:20:18;;;;;;;3.60;2.00;;;17.90;59.60;;;;;;5073472;28;20251;-48
2023/04/14 00:22:48;;;;;;;3.07;1.70;;;17.90;59.60;;;;;;5068632;28;20311;-47
2023/04/14 00:25:18;;;;;;;3.80;1.90;;;17.90;59.60;;;;;;5073056;28;20201;-47
2023/04/14 00:28:03;;;;;;;2.13;1.70;;;17.80;59.60;;;;;;5066970;28;20285;-47
2023/04/14 00:30:34;;;;;;;2.30;1.57;;;17.80;59.60;;;;;;5068703;28;20217;-47
2023/04/14 00:33:05;;;;;;;4.50;2.17;;;17.80;59.70;;;;;;5065251;28;20197;-47
2023/04/14 00:35:36;;;;;;;3.10;2.10;;;17.80;59.70;;;;;;5047095;28;20205;-47
2023/04/14 00:38:08;;;;;;;3.27;1.80;;;17.80;59.70;;;;;;5062740;28;20194;-47
2023/04/14 00:40:51;;;;;;;3.87;1.70;;;17.80;59.70;;;;;;5078198;28;20592;-46
2023/04/14 00:43:22;;;;;;;3.30;1.90;;;17.80;59.70;;;;;;5079847;28;20185;-47
2023/04/14 00:45:55;;;;;;;3.00;1.43;;;17.70;59.70;;;;;;5072302;28;20215;-47
2023/04/14 00:48:26;;;;;;;3.50;1.87;;;17.70;59.70;;;;;;5063502;28;20219;-47
2023/04/14 00:50:58;;;;;;;1.73;1.37;;;17.70;59.70;;;;;;5067553;28;20955;-47
2023/04/14 00:53:30;;;;;;;2.67;1.50;;;17.70;59.70;;;;;;5069128;28;20227;-47
2023/04/14 00:56:00;;;;;;;1.93;1.70;;;17.70;59.80;;;;;;5074938;28;20205;-47
2023/04/14 00:58:31;;;;;;;2.27;1.53;;;17.70;59.80;;;;;;5071012;28;20206;-47
2023/04/14 01:01:00;;;;;;;2.37;1.43;;;17.60;59.80;;;;;;5032248;28;20260;-48
2023/04/14 01:03:28;;;;;;;3.37;1.60;;;17.60;59.80;;;;;;5047931;28;20261;-47
2023/04/14 01:05:58;;;;;;;3.17;1.53;;;17.60;59.90;;;;;;5072012;28;20194;-47
2023/04/14 01:08:27;;;;;;;2.77;1.57;;;17.60;59.90;;;;;;5069879;28;20194;-47
2023/04/14 01:11:26;;;;;;;2.23;1.40;;;17.60;59.90;;;;;;5049072;28;20276;-47
2023/04/14 01:14:23;;;;;;;3.33;1.30;;;17.60;59.80;;;;;;5066936;28;20216;-47
2023/04/14 01:17:08;;;;;;;2.83;1.47;;;17.60;59.90;;;;;;5063716;28;20224;-47
2023/04/14 01:19:55;;;;;;;2.90;1.87;;;17.60;59.90;;;;;;5064823;28;20200;-47
2023/04/14 01:22:49;;;;;;;2.27;1.83;;;17.60;59.90;;;;;;5063762;28;20710;-47
2023/04/14 01:25:56;;;;;;;2.77;1.50;;;17.50;59.90;;;;;;5079457;28;20741;-47
2023/04/14 01:28:54;;;;;;;2.93;1.60;;;17.50;59.90;;;;;;4980941;28;20616;-47
2023/04/14 01:31:31;;;;;;;2.47;1.93;;;17.50;59.90;;;;;;5066076;28;20206;-47
2023/04/14 01:34:50;;;;;;;2.90;1.60;;;17.50;59.90;;;;;;5062352;28;20208;-47
2023/04/14 01:37:33;;;;;;;2.83;1.50;;;17.50;59.80;;;;;;5060316;28;20382;-47
2023/04/14 01:40:11;;;;;;;1.93;1.30;;;17.50;59.90;;;;;;5036660;28;20505;-47
2023/04/14 01:42:55;;;;;;;1.63;1.20;;;17.50;59.90;;;;;;5049351;28;20508;-47
2023/04/14 01:45:31;;;;;;;1.60;1.33;;;17.50;59.90;;;;;;5051252;28;20200;-47
2023/04/14 01:48:02;;;;;;;2.37;1.30;;;17.40;59.80;;;;;;5066506;28;20221;-47
2023/04/14 01:50:34;;;;;;;1.90;1.30;;;17.40;59.90;;;;;;5047653;28;20672;-47
2023/04/14 01:53:06;;;;;;;1.67;1.30;;;17.40;59.80;;;;;;5026303;28;20189;-47
2023/04/14 01:55:36;;;;;;;1.30;1.20;;;17.40;59.80;;;;;;5049986;28;20225;-47
2023/04/14 01:58:08;;;;;;;1.93;1.37;;;17.40;59.70;;;;;;5038198;28;20533;-47
2023/04/14 02:00:51;;;;;;;2.10;1.47;;;17.40;59.80;;;;;;5030452;28;20210;-47
2023/04/14 02:03:35;;;;;;;1.47;1.17;;;17.40;59.80;;;;;;5062265;28;20224;-47
2023/04/14 02:06:11;;;;;;;1.83;1.10;;;17.40;59.70;;;;;;5047003;28;20232;-47
2023/04/14 02:08:47;;;;;;;2.13;1.50;;;17.40;59.70;;;;;;5059164;28;20205;-47
2023/04/14 02:11:24;;;;;;;1.57;1.13;;;17.40;59.70;;;;;;5077236;28;20204;-47
2023/04/14 02:13:57;;;;;;;2.20;1.27;;;17.40;59.70;;;;;;5040681;28;20205;-47
2023/04/14 02:16:29;;;;;;;2.73;1.23;;;17.40;59.70;;;;;;5067677;28;20645;-47
2023/04/14 02:19:22;;;;;;;1.93;1.20;;;17.40;59.70;;;;;;5055313;28;20204;-47
2023/04/14 02:21:59;;;;;;;2.67;1.50;;;17.40;59.70;;;;;;5074893;28;20581;-47
2023/04/14 02:24:32;;;;;;;2.67;1.40;;;17.40;59.70;;;;;;5048701;28;20261;-47
2023/04/14 02:27:10;;;;;;;2.20;1.27;;;17.30;59.60;;;;;;5068218;28;20496;-47
2023/04/14 02:29:47;;;;;;;1.63;1.20;;;17.30;59.60;;;;;;5027130;28;20244;-47
2023/04/14 02:32:22;;;;;;;1.93;1.37;;;17.30;59.60;;;;;;5040903;28;20311;-47
2023/04/14 02:35:15;;;;;;;3.77;1.10;;;17.30;59.60;;;;;;5048935;28;20686;-47
2023/04/14 02:37:52;;;;;;;2.03;1.20;;;17.30;59.70;;;;;;5069254;28;20200;-48
2023/04/14 02:40:34;;;;;;;1.50;1.03;;;17.30;59.60;;;;;;5052113;28;20201;-47
2023/04/14 02:43:17;;;;;;;2.83;1.40;;;17.20;59.60;;;;;;5061999;28;20231;-47
2023/04/14 02:45:49;;;;;;;1.37;1.27;;;17.20;59.60;;;;;;5039492;28;20666;-47
2023/04/14 02:48:24;;;;;;;1.90;1.10;;;17.20;59.60;;;;;;5044345;28;20216;-47
2023/04/14 02:51:07;;;;;;;1.63;1.17;;;17.30;59.60;;;;;;5052818;28;20314;-47
2023/04/14 02:53:38;;;;;;;2.67;1.60;;;17.20;59.60;;;;;;5040876;28;20206;-47
2023/04/14 02:56:10;;;;;;;1.37;1.07;;;17.20;59.60;;;;;;5051551;28;20333;-47
2023/04/14 02:58:43;;;;;;;2.23;1.20;;;17.20;59.60;;;;;;5042018;28;20244;-47
2023/04/14 03:01:20;;;;;;;1.67;1.40;;;17.20;59.60;;;;;;5069013;28;20276;-47
2023/04/14 03:03:52;;;;;;;1.73;1.13;;;17.20;59.60;;;;;;5070036;28;20204;-47
2023/04/14 03:06:25;;;;;;;1.57;1.27;;;17.20;59.60;;;;;;5051948;28;20537;-47
2023/04/14 03:08:58;;;;;;;2.00;1.20;;;17.20;59.50;;;;;;5052905;28;20197;-47
2023/04/14 03:11:31;;;;;;;2.47;1.50;;;17.20;59.50;;;;;;5048580;28;20232;-47
2023/04/14 03:14:04;;;;;;;1.57;1.00;;;17.20;59.60;;;;;;5051440;28;20189;-47
2023/04/14 03:16:38;;;;;;;4.20;1.27;;;17.10;59.50;;;;;;5056388;28;20200;-47
2023/04/14 03:19:11;;;;;;;2.23;1.30;;;17.10;59.50;;;;;;5058563;28;20214;-47
2023/04/14 03:21:41;;;;;;;1.53;0.90;;;17.20;59.60;;;;;;5050364;28;20221;-47
2023/04/14 03:24:13;;;;;;;2.23;1.40;;;17.10;59.50;;;;;;5047154;28;20241;-47
2023/04/14 03:26:48;;;;;;;1.90;1.13;;;17.10;59.60;;;;;;5051701;28;20230;-47
2023/04/14 03:29:41;;;;;;;1.50;1.00;;;17.10;59.60;;;;;;5070252;28;20420;-47
2023/04/14 03:32:15;;;;;;;1.10;1.00;;;17.10;59.60;;;;;;5070319;28;20194;-47
2023/04/14 03:34:49;;;;;;;2.33;1.10;;;17.10;59.50;;;;;;5048853;28;20194;-47
2023/04/14 03:37:23;;;;;;;1.67;1.17;;;17.10;59.60;;;;;;5052325;28;20201;-47
2023/04/14 03:39:59;;;;;;;1.87;1.30;;;17.10;59.50;;;;;;5035656;28;20196;-47
2023/04/14 03:42:39;;;;;;;1.87;1.07;;;17.10;59.50;;;;;;5075538;28;20275;-47
2023/04/14 03:45:09;;;;;;;1.77;1.37;;;17.10;59.50;;;;;;5072355;28;20196;-47
2023/04/14 03:47:39;;;;;;;2.10;0.93;;;17.10;59.60;;;;;;5058933;28;20538;-47
2023/04/14 03:50:11;;;;;;;3.30;1.30;;;17.10;59.50;;;;;;5068742;28;20216;-47
2023/04/14 03:52:56;;;;;;;1.73;1.37;;;17.10;59.50;;;;;;5033855;28;20186;-46
2023/04/14 03:55:32;;;;;;;1.63;1.10;;;17.10;59.50;;;;;;5060232;28;20201;-47
2023/04/14 03:58:07;;;;;;;1.70;1.40;;;17.00;59.50;;;;;;5084692;28;20248;-47
2023/04/14 04:00:43;;;;;;;1.57;1.20;;;17.00;59.50;;;;;;5038361;28;20551;-47
2023/04/14 04:03:20;;;;;;;1.77;1.33;;;17.00;59.50;;;;;;5072014;28;20679;-47
2023/04/14 04:05:48;;;;;;;1.67;1.30;;;17.10;59.50;;;;;;5050096;28;20290;-47
2023/04/14 04:08:17;;;;;;;1.97;0.90;;;17.00;59.50;;;;;;5044931;28;20217;-47
2023/04/14 04:10:50;;;;;;;3.77;1.00;;;17.00;59.50;;;;;;5045442;28;20207;-47
2023/04/14 04:13:24;;;;;;;1.50;1.13;;;17.00;59.80;;;;;;5038642;28;20203;-47
2023/04/14 04:15:54;;;;;;;1.47;0.93;;;17.10;59.90;;;;;;5071806;28;20201;-47
2023/04/14 04:18:30;;;;;;;2.50;1.30;;;17.10;60.10;;;;;;5055289;28;20206;-47
2023/04/14 04:21:02;;;;;;;1.33;1.13;;;17.10;60.10;;;;;;5064390;28;20197;-47
2023/04/14 04:23:48;;;;;;;1.80;1.20;;;17.20;60.20;;;;;;5041226;28;20206;-46
2023/04/14 04:26:31;;;;;;;1.43;1.00;;;17.20;60.10;;;;;;5055639;28;20194;-46
2023/04/14 04:29:04;;;;;;;1.63;1.00;;;17.20;60.20;;;;;;5077575;28;20201;-46
2023/04/14 04:31:35;;;;;;;1.87;1.03;;;17.30;60.10;;;;;;5053335;28;20586;-47
2023/04/14 04:34:07;;;;;;;3.73;1.20;;;17.30;60.10;;;;;;5071007;28;20201;-46
2023/04/14 04:36:38;;;;;;;1.03;0.90;;;17.40;59.90;;;;;;5041924;28;20236;-46
2023/04/14 04:39:08;;;;;;;2.27;0.97;;;17.40;59.70;;;;;;5059648;28;20209;-46
2023/04/14 04:41:36;;;;;;;1.90;1.17;;;17.50;59.70;;;;;;5070817;28;20725;-46
2023/04/14 04:44:08;;;;;;;1.37;1.00;;;17.50;59.50;;;;;;5070097;28;20696;-46
2023/04/14 04:46:54;;;;;;;1.53;0.93;;;17.60;59.40;;;;;;5065047;28;20193;-46
2023/04/14 04:49:25;;;;;;;1.40;1.20;;;17.60;59.20;;;;;;5070383;28;20621;-47
2023/04/14 04:51:56;;;;;;;1.43;1.20;;;17.60;59.10;;;;;;5059064;28;20221;-46
2023/04/14 04:54:26;;;;;;;1.13;1.03;;;17.70;59.10;;;;;;5071684;28;20649;-46
2023/04/14 04:56:57;;;;;;;1.83;1.13;;;17.70;59.10;;;;;;5065180;28;20206;-46
2023/04/14 04:59:27;;;;;;;1.67;1.00;;;17.70;58.90;;;;;;5067526;28;20802;-47
2023/04/14 05:01:58;;;;;;;3.07;1.33;;;17.80;58.70;;;;;;5070593;28;20252;-46
2023/04/14 05:04:27;;;;;;;1.30;1.20;;;17.80;58.60;;;;;;5077418;28;20185;-46
2023/04/14 05:06:57;;;;;;;2.53;1.10;;;17.80;58.40;;;;;;5071154;28;20550;-46
2023/04/14 05:09:30;;;;;;;2.47;1.13;;;17.90;58.50;;;;;;5071751;28;20201;-47
2023/04/14 05:12:01;;;;;;;2.17;1.23;;;17.90;58.40;;;;;;5069641;28;20309;-47
2023/04/14 05:14:31;;;;;;;2.63;1.20;;;17.90;58.40;;;;;;5069660;28;20208;-46
2023/04/14 05:16:59;;;;;;;2.20;1.00;;;17.90;58.30;;;;;;5069568;28;20502;-46
2023/04/14 05:19:29;;;;;;;1.30;1.17;;;17.90;58.40;;;;;;5045031;28;20671;-47
2023/04/14 05:22:00;;;;;;;1.83;1.00;;;17.90;58.90;;;;;;5078317;28;20233;-47
2023/04/14 05:24:28;;;;;;;1.80;1.27;;;17.90;58.20;;;;;;5062519;28;20252;-46
2023/04/14 05:26:58;;;;;;;3.77;1.07;;;17.90;58.10;;;;;;5075854;28;20906;-46
2023/04/14 05:29:43;;;;;;;1.33;0.97;;;17.90;58.10;;;;;;5070779;28;20209;-47
2023/04/14 05:32:15;;;;;;;1.53;1.00;;;17.90;58.20;;;;;;5066932;28;20623;-46
2023/04/14 05:34:46;;;;;;;3.37;1.10;;;17.90;58.20;;;;;;5066869;28;20251;-47
2023/04/14 05:37:22;;;;;;;2.90;1.10;;;18.00;58.20;;;;;;5071091;28;20198;-47
2023/04/14 05:39:52;;;;;;;1.73;1.00;;;18.00;57.80;;;;;;5071476;28;20198;-46
2023/04/14 05:42:21;;;;;;;1.70;1.10;;;18.00;57.60;;;;;;5066937;28;20210;-47
2023/04/14 05:44:51;;;;;;;1.93;1.33;;;18.00;57.40;;;;;;5068352;28;20259;-46
2023/04/14 05:47:20;;;;;;;3.73;1.70;;;17.90;57.40;;;;;;5077288;28;20201;-47
2023/04/14 05:49:52;;;;;;;2.37;1.50;;;17.90;57.40;;;;;;5076556;28;20201;-47
2023/04/14 05:52:23;;;;;;;3.13;1.47;;;17.80;57.60;;;;;;5077606;28;20646;-46
2023/04/14 05:54:55;;;;;;;2.90;1.40;;;17.80;57.60;;;;;;5069930;28;20189;-46
2023/04/14 05:57:25;;;;;;;3.73;1.70;;;17.80;58.30;;;;;;5072685;28;20229;-46
2023/04/14 05:59:55;;;;;;;4.90;1.80;;;17.70;57.70;;;;;;5067750;28;20225;-46
2023/04/14 06:02:26;;;;;;;5.50;1.80;;;17.70;57.80;;;;;;5069200;28;20198;-47
2023/04/14 06:04:58;;;;;;;4.60;2.17;;;17.70;57.90;;;;;;5053882;28;20208;-46
2023/04/14 06:07:30;;;;;;;4.47;1.63;;;17.70;57.80;;;;;;5081366;28;20255;-47
2023/04/14 06:10:06;;;;;;;5.23;2.23;;;17.60;57.80;;;;;;5064275;28;20189;-46
2023/04/14 06:12:37;;;;;;;4.53;2.17;;;17.60;57.90;;;;;;5049169;28;20213;-46
2023/04/14 06:15:12;;;;;;;4.90;2.23;;;17.60;58.10;;;;;;5072210;28;20575;-46
2023/04/14 06:17:42;;;;;;;6.67;1.97;;;17.60;58.30;;;;;;5069948;28;20205;-47
2023/04/14 06:20:15;;;;;;;3.43;2.00;;;17.60;58.10;;;;;;5072028;28;20201;-47
2023/04/14 06:22:45;;;;;;;5.80;2.00;;;17.50;58.30;;;;;;5060212;28;20229;-47
2023/04/14 06:25:14;;;;;;;6.23;2.23;;;17.50;58.20;;;;;;5068703;28;20712;-47
2023/04/14 06:27:50;;;;;;;10.43;3.77;;;17.50;58.20;;;;;;5047430;28;20246;-47
2023/04/14 06:30:27;;;;;;;15.53;4.83;;;17.50;58.70;;;;;;5074382;28;20566;-47
2023/04/14 06:33:06;;;;;;;8.97;3.83;;;17.50;59.10;;;;;;5065990;28;20193;-46
2023/04/14 06:35:37;;;;;;;8.77;3.97;;;17.60;59.50;;;;;;5057414;28;20214;-46
2023/04/14 06:38:08;;;;;;;13.13;4.60;;;17.70;59.20;;;;;;5067070;28;20197;-47
2023/04/14 06:40:37;;;;;;;9.93;3.73;;;17.70;59.20;;;;;;5067493;28;20221;-47
2023/04/14 06:43:13;;;;;;;7.70;3.53;;;17.80;59.30;;;;;;5061342;28;20542;-46
2023/04/14 06:45:50;;;;;;;7.57;3.87;;;17.80;59.00;;;;;;5064719;28;20282;-46
2023/04/14 06:48:26;;;;;;;11.87;3.33;;;17.90;59.00;;;;;;5068528;28;20197;-47
2023/04/14 06:50:58;;;;;;;6.90;3.47;;;17.90;58.90;;;;;;5066855;28;20858;-47
2023/04/14 06:53:26;;;;;;;8.13;3.50;;;18.00;58.90;;;;;;5061212;28;20628;-46
2023/04/14 06:55:57;;;;;;;5.43;2.90;;;18.00;58.70;;;;;;5051772;28;20792;-47
2023/04/14 06:58:41;;;;;;;7.83;3.10;;;18.10;58.40;;;;;;5065264;28;20189;-46
2023/04/14 07:01:11;;;;;;;8.03;3.00;;;18.20;57.60;;;;;;5074553;28;20209;-47
2023/04/14 07:03:43;;;;;;;11.20;3.00;;;18.20;57.70;;;;;;5067424;28;20205;-47
2023/04/14 07:06:15;;;;;;;5.90;2.67;;;18.20;57.90;;;;;;5052978;28;20197;-46
2023/04/14 07:08:57;;;;;;;6.90;2.43;;;18.20;57.40;;;;;;5056916;28;20297;-47
2023/04/14 07:11:29;;;;;;;4.60;2.70;;;18.30;58.10;;;;;;5065184;28;20248;-46
2023/04/14 07:14:01;;;;;;;5.57;2.90;;;18.40;57.60;;;;;;5067701;28;20205;-47
2023/04/14 07:16:32;;;;;;;7.73;2.33;;;18.40;57.80;;;;;;5071546;28;20994;-46
2023/04/14 07:19:01;;;;;;;5.80;2.73;;;18.50;57.40;;;;;;5052463;28;20200;-46
2023/04/14 07:21:32;;;;;;;5.43;2.23;;;18.50;57.80;;;;;;5061878;28;20525;-47
2023/04/14 07:24:00;;;;;;;5.30;2.60;;;18.60;57.20;;;;;;5061819;28;20202;-47
2023/04/14 07:26:33;;;;;;;5.90;2.80;;;18.60;57.30;;;;;;5071833;28;20201;-47
2023/04/14 07:29:04;;;;;;;8.90;2.87;;;18.70;57.30;;;;;;5070651;28;20220;-47
2023/04/14 07:31:36;;;;;;;5.33;2.43;;;18.70;57.10;;;;;;5047064;28;20348;-47
2023/04/14 07:34:07;;;;;;;5.30;2.47;;;18.80;56.70;;;;;;5067476;28;20190;-47
2023/04/14 07:36:37;;;;;;;4.67;2.23;;;18.80;56.00;;;;;;5050450;28;20217;-47
2023/04/14 07:39:10;;;;;;;5.97;2.40;;;18.80;56.90;;;;;;5070319;28;20251;-47
2023/04/14 07:41:41;;;;;;;4.03;2.20;;;18.80;55.90;;;;;;5050892;28;20274;-46
2023/04/14 07:44:12;;;;;;;4.73;2.17;;;18.90;56.40;;;;;;5050845;28;20473;-46
2023/04/14 07:46:44;;;;;;;4.43;2.03;;;18.90;55.60;;;;;;5070929;28;20208;-46
2023/04/14 07:49:13;;;;;;;2.53;1.83;;;19.00;56.10;;;;;;5078294;28;20209;-46
2023/04/14 07:51:41;;;;;;;5.63;2.30;;;19.00;55.80;;;;;;5071479;28;20210;-46
2023/04/14 07:54:12;;;;;;;11.27;2.43;;;19.00;55.40;;;;;;5067108;28;20216;-46
2023/04/14 07:56:42;;;;;;;5.93;2.00;;;19.10;55.40;;;;;;5063375;28;20196;-47
2023/04/14 07:59:11;;;;;;;4.23;1.80;;;19.10;55.80;;;;;;5073962;28;20213;-46
2023/04/14 08:01:43;;;;;;;5.43;2.33;;;19.20;55.40;;;;;;5075024;28;20582;-47
2023/04/14 08:04:25;;;;;;;3.87;2.07;;;19.20;55.00;;;;;;5067990;28;20212;-47
2023/04/14 08:06:56;;;;;;;3.63;1.90;;;19.20;55.60;;;;;;5070629;28;20254;-46
2023/04/14 08:09:26;;;;;;;6.73;1.70;;;19.30;55.30;;;;;;5072571;28;20208;-47
2023/04/14 08:11:56;;;;;;;3.03;1.60;;;19.30;53.60;;;;;;5069248;28;20229;-47
2023/04/14 08:14:27;;;;;;;3.93;1.90;;;19.30;53.90;;;;;;5085160;28;20591;-47
2023/04/14 08:16:57;;;;;;;5.33;2.03;;;19.20;54.00;;;;;;5078547;28;20276;-46
2023/04/14 08:19:26;;;;;;;4.73;1.73;;;19.20;54.00;;;;;;5078807;28;20220;-47
2023/04/14 08:21:58;;;;;;;6.30;1.60;;;19.20;54.50;;;;;;5061967;28;20226;-47
2023/04/14 08:24:29;;;;;;;3.07;1.50;;;19.20;54.70;;;;;;5052254;28;20207;-47
2023/04/14 08:27:05;;;;;;;2.90;1.60;;;19.30;55.10;;;;;;5059425;28;20194;-47
2023/04/14 08:29:35;;;;;;;2.47;1.60;;;19.40;53.90;;;;;;5050613;28;20539;-46
2023/04/14 08:32:05;;;;;;;2.43;1.40;;;19.30;53.90;;;;;;5063765;28;20217;-47
2023/04/14 08:34:35;;;;;;;3.50;1.57;;;19.30;54.20;;;;;;5057449;28;20187;-46
2023/04/14 08:37:29;;;;;;;3.07;1.57;;;19.30;54.40;;;;;;5050187;28;20273;-47
2023/04/14 08:39:57;;;;;;;4.27;1.70;;;19.40;54.10;;;;;;5058564;28;20531;-47
2023/04/14 08:42:28;;;;;;;3.07;1.40;;;19.40;54.00;;;;;;5057089;28;20200;-46
2023/04/14 08:45:02;;;;;;;3.33;1.43;;;19.30;53.90;;;;;;5033728;28;20195;-46
2023/04/14 08:47:34;;;;;;;2.67;1.50;;;19.30;54.10;;;;;;5051498;28;20539;-47
2023/04/14 08:50:09;;;;;;;3.07;1.70;;;19.40;54.00;;;;;;5035041;28;20213;-46
2023/04/14 08:52:44;;;;;;;4.13;1.67;;;19.30;53.70;;;;;;5034543;28;20214;-46
2023/04/14 08:55:17;;;;;;;2.63;1.50;;;19.40;53.70;;;;;;5044249;28;20512;-46
2023/04/14 08:57:52;;;;;;;2.43;1.43;;;19.30;53.70;;;;;;5062553;28;20255;-46
2023/04/14 09:00:25;;;;;;;2.77;1.70;;;19.30;53.90;;;;;;5056568;28;20211;-46
2023/04/14 09:02:57;;;;;;;2.60;1.20;;;19.40;54.00;;;;;;5054268;28;20211;-46
2023/04/14 09:05:25;;;;;;;2.27;1.20;;;19.40;53.90;;;;;;5047481;28;20202;-46
2023/04/14 09:07:55;;;;;;;3.90;1.70;;;19.40;54.30;;;;;;5043312;28;20198;-47
2023/04/14 09:10:25;;;;;;;1.77;0.93;;;19.40;53.70;;;;;;5036602;28;20241;-46
2023/04/14 09:13:07;;;;;;;1.90;1.20;;;19.40;53.90;;;;;;5056353;28;20210;-46
2023/04/14 09:15:37;;;;;;;1.70;1.27;;;19.50;53.90;;;;;;5054651;28;20194;-47
2023/04/14 09:18:10;;;;;;;4.40;1.27;;;19.50;53.80;;;;;;5043291;28;20220;-46
2023/04/14 09:20:48;;;;;;;2.07;1.23;;;19.50;53.60;;;;;;5057644;28;20204;-46
2023/04/14 09:23:46;;;;;;;3.20;1.30;;;19.50;53.70;;;;;;5036185;28;20235;-46
2023/04/14 09:26:18;;;;;;;1.80;1.10;;;19.60;54.00;;;;;;5040502;28;20558;-47
2023/04/14 09:28:49;;;;;;;1.93;1.30;;;19.50;53.50;;;;;;5059214;28;20194;-47
2023/04/14 09:31:23;;;;;;;3.47;1.20;;;19.60;53.50;;;;;;5062536;28;20233;-46
2023/04/14 09:33:52;;;;;;;3.60;1.27;;;19.60;53.50;;;;;;5061014;28;20241;-47
2023/04/14 09:36:23;;;;;;;2.10;1.10;;;19.60;53.50;;;;;;5037027;28;20240;-47
2023/04/14 09:38:52;;;;;;;1.10;0.80;;;19.50;53.30;;;;;;5048417;28;20613;-47
2023/04/14 09:41:26;;;;;;;3.53;1.10;;;19.60;53.50;;;;;;5033654;28;20198;-46
2023/04/14 09:44:06;;;;;;;2.20;1.10;;;19.60;53.50;;;;;;5055933;28;20206;-47
2023/04/14 09:46:35;;;;;;;1.67;1.00;;;19.60;53.20;;;;;;5031684;28;20206;-46
2023/04/14 09:49:05;;;;;;;1.67;0.83;;;19.60;53.10;;;;;;5053140;28;20205;-46
2023/04/14 09:51:35;;;;;;;2.07;1.10;;;19.60;53.10;;;;;;5033163;28;20219;-46
2023/04/14 09:54:04;;;;;;;1.63;0.83;;;19.60;53.20;;;;;;5065598;28;20224;-46
2023/04/14 09:56:47;;;;;;;2.37;0.97;;;19.60;53.10;;;;;;5048828;28;20213;-46
2023/04/14 09:59:32;;;;;;;2.53;1.33;;;19.70;53.40;;;;;;5066869;28;20209;-46
2023/04/14 10:02:07;;;;;;;2.77;1.10;;;19.70;53.30;;;;;;5050653;28;20240;-46
2023/04/14 10:04:38;;;;;;;3.10;1.27;;;19.70;53.30;;;;;;5045687;28;20260;-46
2023/04/14 10:07:07;;;;;;;2.23;1.17;;;19.70;53.20;;;;;;5062235;28;20220;-47
2023/04/14 10:09:39;;;;;;;1.70;1.10;;;19.70;53.10;;;;;;5057851;28;20213;-47
2023/04/14 10:12:14;;;;;;;2.57;0.90;;;19.70;53.30;;;;;;5047926;28;20288;-46
2023/04/14 10:14:46;;;;;;;3.10;0.93;;;19.70;53.20;;;;;;5045921;28;20201;-47
2023/04/14 10:17:16;;;;;;;1.30;0.97;;;19.70;53.30;;;;;;5058071;28;20286;-47
2023/04/14 10:19:47;;;;;;;4.97;1.10;;;19.80;53.10;;;;;;5066875;28;20216;-47
2023/04/14 10:22:19;;;;;;;2.23;0.80;;;19.80;53.10;;;;;;5042205;28;20241;-47
2023/04/14 10:24:49;;;;;;;2.53;1.10;;;19.80;52.90;;;;;;5063055;28;20675;-46
2023/04/14 10:27:21;;;;;;;1.77;1.00;;;19.80;53.20;;;;;;5063713;28;20208;-46
2023/04/14 10:29:52;;;;;;;2.53;0.67;;;19.80;52.40;;;;;;5070517;28;20216;-46
2023/04/14 10:32:25;;;;;;;3.80;1.20;;;19.80;52.70;;;;;;5071923;28;20220;-47
2023/04/14 10:35:17;;;;;;;2.83;1.40;;;19.70;52.60;;;;;;5069831;28;20208;-47
2023/04/14 10:37:51;;;;;;;2.00;0.90;;;19.70;52.40;;;;;;5094240;28;20214;-47
2023/04/14 10:40:24;;;;;;;1.70;0.90;;;19.70;52.50;;;;;;5097595;28;20258;-47
2023/04/14 10:42:55;;;;;;;1.40;0.70;;;19.70;52.40;;;;;;5106356;28;20577;-47
2023/04/14 10:45:56;;;;;;;2.00;1.00;;;19.60;52.30;;;;;;5086031;28;20224;-46
2023/04/14 10:48:31;;;;;;;2.00;0.90;;;19.60;52.30;;;;;;5084829;28;20300;-46
2023/04/14 10:51:07;;;;;;;1.77;0.90;;;19.50;52.60;;;;;;5067081;28;20822;-47
2023/04/14 10:53:54;;;;;;;1.93;1.07;;;19.60;52.20;;;;;;5076738;28;20193;-47
2023/04/14 10:56:28;;;;;;;1.83;0.90;;;19.60;52.10;;;;;;5096054;28;20606;-47
2023/04/14 10:59:04;;;;;;;2.80;1.10;;;19.60;51.90;;;;;;5086937;28;20806;-46
2023/04/14 11:01:39;;;;;;;2.57;0.90;;;19.60;51.60;;;;;;5083422;28;20198;-46
2023/04/14 11:04:19;;;;;;;2.57;0.97;;;19.60;51.60;;;;;;5086508;28;20201;-47
2023/04/14 11:06:55;;;;;;;2.87;0.87;;;19.70;52.10;;;;;;5087013;28;20204;-47
2023/04/14 11:09:36;;;;;;;6.17;1.00;;;19.70;52.50;;;;;;5085673;28;20192;-46
2023/04/14 11:12:28;;;;;;;3.00;1.00;;;19.70;52.50;;;;;;5087690;28;20228;-46
2023/04/14 11:15:07;;;;;;;4.57;1.23;;;19.70;52.40;;;;;;5079792;28;20193;-47
2023/04/14 11:17:39;;;;;;;3.77;0.87;;;19.80;53.10;;;;;;5071438;28;20254;-46
2023/04/14 11:20:24;;;;;;;5.33;1.07;;;19.90;52.70;;;;;;5090722;28;20224;-46
2023/04/14 11:22:57;;;;;;;2.20;0.97;;;19.90;52.90;;;;;;5080073;28;20284;-46
2023/04/14 11:25:26;;;;;;;2.33;0.90;;;19.90;52.30;;;;;;5092946;28;20235;-46
2023/04/14 11:28:02;;;;;;;2.83;0.80;;;20.00;52.30;;;;;;5100349;28;20262;-46
2023/04/14 11:30:31;;;;;;;1.90;1.00;;;20.10;52.10;;;;;;5048050;28;20207;-47
2023/04/14 11:33:02;;;;;;;1.27;0.80;;;20.10;52.80;;;;;;5086183;28;20248;-47
2023/04/14 11:35:31;;;;;;;3.27;1.20;;;20.10;52.40;;;;;;5086378;28;20219;-47
2023/04/14 11:38:01;;;;;;;4.57;0.87;;;20.20;51.50;;;;;;5094850;28;20535;-47
2023/04/14 11:40:35;;;;;;;2.00;0.70;;;20.20;51.30;;;;;;5100358;28;20544;-46
2023/04/14 11:43:05;;;;;;;4.73;0.90;;;20.30;51.70;;;;;;5033729;28;20265;-48
2023/04/14 11:45:40;;;;;;;1.87;0.60;;;20.30;52.10;;;;;;5063671;28;20201;-47
2023/04/14 11:48:14;;;;;;;4.77;1.00;;;20.40;52.00;;;;;;5064296;28;20208;-47
2023/04/14 11:50:44;;;;;;;1.03;0.80;;;20.40;51.80;;;;;;5097595;28;20220;-46
2023/04/14 11:53:20;;;;;;;2.03;0.87;;;20.50;51.50;;;;;;5100474;28;20223;-46
2023/04/14 11:55:53;;;;;;;1.83;0.90;;;20.50;51.00;;;;;;5102793;28;20525;-47
2023/04/14 11:58:27;;;;;;;1.37;0.73;;;20.60;51.40;;;;;;5081096;28;20193;-47
2023/04/14 12:01:13;;;;;;;2.63;0.90;;;20.60;50.50;;;;;;5072795;28;20192;-47
2023/04/14 12:03:45;;;;;;;2.63;1.00;;;20.60;51.50;;;;;;5096720;28;20204;-46
2023/04/14 12:06:18;;;;;;;5.03;0.90;;;20.60;50.60;;;;;;5096453;28;20231;-47
2023/04/14 12:09:00;;;;;;;3.33;0.80;;;20.60;50.90;;;;;;5080009;28;20312;-46
2023/04/14 12:11:31;;;;;;;1.87;0.93;;;20.70;50.50;;;;;;5103359;28;20213;-46
2023/04/14 12:14:03;;;;;;;1.77;0.90;;;20.70;50.70;;;;;;5101101;28;20197;-46
2023/04/14 12:16:37;;;;;;;3.97;0.70;;;20.70;51.30;;;;;;5094776;28;20205;-46
2023/04/14 12:19:08;;;;;;;4.30;1.03;;;20.80;50.40;;;;;;5068981;28;20201;-46
2023/04/14 12:21:37;;;;;;;1.70;0.70;;;20.80;50.90;;;;;;5090481;28;20208;-46
2023/04/14 12:24:09;;;;;;;2.70;1.00;;;20.80;51.20;;;;;;5089164;28;20264;-47
2023/04/14 12:26:51;;;;;;;2.57;1.03;;;20.80;51.60;;;;;;5078405;28;20239;-51
2023/04/14 12:29:22;;;;;;;3.33;0.90;;;20.80;51.20;;;;;;5092885;28;20188;-47
2023/04/14 12:31:52;;;;;;;3.63;0.93;;;20.90;51.70;;;;;;5082913;28;20190;-46
2023/04/14 12:34:26;;;;;;;2.57;0.77;;;20.90;51.30;;;;;;5078068;28;20216;-46
2023/04/14 12:37:11;;;;;;;1.97;0.80;;;20.90;51.10;;;;;;5075320;28;20217;-47
2023/04/14 12:39:52;;;;;;;1.30;0.70;;;20.90;51.10;;;;;;5092041;28;20543;-47
2023/04/14 12:42:22;;;;;;;2.43;0.80;;;21.00;51.20;;;;;;5079941;28;20572;-47
2023/04/14 12:45:10;;;;;;;3.67;0.83;;;21.00;51.30;;;;;;5091910;28;20321;-47
2023/04/14 12:47:38;;;;;;;1.70;0.70;;;21.10;51.90;;;;;;5074917;28;20522;-46
2023/04/14 12:50:31;;;;;;;3.87;1.03;;;21.10;51.80;;;;;;5079560;28;20232;-47
2023/04/14 12:53:21;;;;;;;3.43;0.93;;;21.10;51.00;;;;;;5092232;28;20215;-47
2023/04/14 12:56:21;;;;;;;1.73;0.90;;;21.10;51.50;;;;;;5075637;28;20185;-47
2023/04/14 12:58:53;;;;;;;1.90;0.80;;;21.10;51.70;;;;;;5069364;28;20193;-47
2023/04/14 13:01:24;;;;;;;2.03;0.97;;;21.20;52.10;;;;;;5095167;28;20197;-47
2023/04/14 13:03:54;;;;;;;3.23;0.80;;;21.20;51.30;;;;;;5078869;28;20236;-47
2023/04/14 13:06:24;;;;;;;3.33;0.83;;;21.20;51.20;;;;;;5084564;28;20209;-47
2023/04/14 13:08:57;;;;;;;1.43;0.70;;;21.20;51.20;;;;;;5080683;28;20203;-47
2023/04/14 13:11:26;;;;;;;1.10;0.70;;;21.20;51.30;;;;;;5075852;28;20685;-47
2023/04/14 13:13:59;;;;;;;8.23;0.93;;;21.20;51.50;;;;;;5073774;28;20240;-47
2023/04/14 13:16:29;;;;;;;1.57;0.83;;;21.20;51.50;;;;;;5091575;28;20647;-47
2023/04/14 13:18:59;;;;;;;2.90;1.10;;;21.30;51.20;;;;;;5081760;28;20201;-47
2023/04/14 13:21:31;;;;;;;2.10;0.80;;;21.30;51.30;;;;;;5107427;28;20193;-47